Miley Memorial Field Big Piney US
ICAO: KBPI
IATA: BPI
Category: Medium
Scheduled Services: No

Elevation: 6990 ft
TransAlt. 18000 ft.

Airport Communications:
ASOS:135.225
CASPER RDO:122.3
CTAF/UNICOM:122.8

KBPI Zoom In..

Runways:

(A) RW 08 length 3301 ft width 60 ft
---- / hdg 77

(B) RW 13 length 6802 ft width 75 ft
---- / hdg 132

(C) RW 26 length 3301 ft width 60 ft
---- / hdg 257

(D) RW 31 length 6802 ft width 75 ft
---- / hdg 312

Location; KBPI
Day. 14 / Time. 13.53 Zulu
* Altimeter: 30.23
* Temperature: 12° c. 53.6°f.
* Wind from: VRB° Speed 03 kn.
Dewpoint: 03° c.
Visibility: 10 Statute Miles.
Clouds: Few 11000 ft.

KBPI 141353Z AUTO VRB03KT 10SM FEW110 12/03 A3023 RMK AO2 SLP137 T01220033


Wind From VRB°
Speed 03 kn.

 
 
jpsmedia.com for Web Design worldairports.se 2018   terms of use